createdAt,value
2023-01-08T00:00:10.364Z,1.80
2023-01-08T00:01:10.639Z,2.10
2023-01-08T00:02:10.896Z,2.00
2023-01-08T00:03:11.225Z,2.60
2023-01-08T00:04:11.528Z,2.70
2023-01-08T00:05:11.777Z,2.20
2023-01-08T00:06:12.085Z,2.80
2023-01-08T00:07:12.325Z,3.60
2023-01-08T00:08:12.633Z,3.50
2023-01-08T00:09:12.881Z,2.40
2023-01-08T00:10:13.175Z,3.00
2023-01-08T00:11:13.488Z,2.40
2023-01-08T00:12:13.752Z,2.60
2023-01-08T00:13:14.012Z,1.70
2023-01-08T00:14:14.280Z,2.00
2023-01-08T00:15:14.575Z,2.00
2023-01-08T00:16:14.922Z,2.10
2023-01-08T00:17:15.209Z,2.10
2023-01-08T00:18:15.418Z,2.40
2023-01-08T00:19:15.731Z,3.70
2023-01-08T00:20:15.971Z,2.40
2023-01-08T00:21:16.278Z,1.90
2023-01-08T00:22:16.557Z,1.90
2023-01-08T00:23:16.800Z,2.70
2023-01-08T00:24:17.074Z,1.90
2023-01-08T00:25:17.378Z,1.60
2023-01-08T00:26:17.695Z,2.20
2023-01-08T00:27:17.952Z,1.90
2023-01-08T00:28:18.182Z,2.00
2023-01-08T00:29:18.464Z,3.70
2023-01-08T00:30:18.756Z,2.50
2023-01-08T00:31:19.138Z,2.60
2023-01-08T00:32:19.324Z,2.70
2023-01-08T00:33:19.589Z,1.80
2023-01-08T00:34:19.851Z,3.10
2023-01-08T00:35:20.116Z,2.50
2023-01-08T00:36:20.392Z,2.00
2023-01-08T00:37:20.671Z,2.20
2023-01-08T00:38:20.914Z,3.20
2023-01-08T00:39:21.223Z,1.90
2023-01-08T00:40:21.462Z,2.60
2023-01-08T00:41:21.770Z,2.30
2023-01-08T00:42:22.023Z,3.40
2023-01-08T00:43:22.298Z,3.70
2023-01-08T00:44:22.535Z,3.40
2023-01-08T00:45:22.832Z,3.50
2023-01-08T00:46:23.182Z,4.60
2023-01-08T00:47:23.322Z,3.60
2023-01-08T00:48:23.630Z,4.80
2023-01-08T00:49:23.878Z,6.10
2023-01-08T00:50:24.157Z,4.10
2023-01-08T00:51:24.487Z,4.80
2023-01-08T00:52:24.735Z,3.80
2023-01-08T00:53:25.035Z,3.70
2023-01-08T00:54:25.296Z,4.20
2023-01-08T00:55:25.557Z,4.70
2023-01-08T00:56:25.896Z,4.50
2023-01-08T00:57:26.133Z,4.20
2023-01-08T00:58:26.402Z,5.10
2023-01-08T00:59:26.666Z,3.00
2023-01-08T01:00:26.911Z,5.00
2023-01-08T01:01:27.285Z,4.60
2023-01-08T01:02:27.507Z,2.60
2023-01-08T01:03:27.793Z,4.60
2023-01-08T01:04:28.134Z,2.50
2023-01-08T01:05:28.269Z,2.70
2023-01-08T01:06:28.582Z,3.80
2023-01-08T01:07:28.836Z,1.70
2023-01-08T01:08:29.078Z,2.60
2023-01-08T01:09:29.382Z,2.60
2023-01-08T01:10:29.653Z,3.30
2023-01-08T01:11:29.965Z,2.50
2023-01-08T01:12:30.216Z,2.70
2023-01-08T01:13:30.456Z,3.70
2023-01-08T01:14:30.768Z,4.60
2023-01-08T01:15:30.989Z,3.60
2023-01-08T01:16:31.328Z,4.70
2023-01-08T01:17:31.580Z,3.60
2023-01-08T01:18:31.808Z,5.90
2023-01-08T01:19:32.079Z,5.90
2023-01-08T01:20:32.371Z,4.00
2023-01-08T01:21:32.710Z,4.20
2023-01-08T01:22:32.966Z,3.80
2023-01-08T01:23:33.222Z,4.20
2023-01-08T01:24:33.544Z,4.10
2023-01-08T01:25:33.806Z,3.90
2023-01-08T01:26:34.105Z,4.90
2023-01-08T01:27:34.298Z,4.60
2023-01-08T01:28:34.597Z,3.70
2023-01-08T01:29:34.835Z,4.80
2023-01-08T01:30:35.227Z,5.60
2023-01-08T01:31:35.379Z,4.00
2023-01-08T01:32:35.610Z,2.80
2023-01-08T01:33:35.904Z,3.40
2023-01-08T01:34:36.166Z,3.10
2023-01-08T01:35:36.493Z,4.30
2023-01-08T01:36:36.762Z,3.30
2023-01-08T01:37:37.009Z,2.50
2023-01-08T01:38:37.255Z,4.50
2023-01-08T01:39:37.542Z,3.80
2023-01-08T01:40:37.862Z,2.60
2023-01-08T01:41:38.122Z,2.90
2023-01-08T01:42:38.361Z,2.80
2023-01-08T01:43:38.635Z,3.00
2023-01-08T01:44:38.908Z,3.40
2023-01-08T01:45:39.267Z,2.80
2023-01-08T01:46:39.536Z,3.70
2023-01-08T01:47:39.768Z,2.90
2023-01-08T01:48:40.077Z,2.40
2023-01-08T01:49:40.311Z,2.80
2023-01-08T01:50:40.598Z,5.30
2023-01-08T01:51:40.910Z,2.50
2023-01-08T01:52:41.189Z,4.60
2023-01-08T01:53:41.410Z,4.90
2023-01-08T01:54:41.693Z,5.80
2023-01-08T01:55:41.991Z,3.30
2023-01-08T01:56:42.235Z,3.70
2023-01-08T01:57:42.530Z,3.30
2023-01-08T01:58:42.818Z,4.00
2023-01-08T01:59:43.107Z,3.90
2023-01-08T02:00:43.347Z,3.90
2023-01-08T02:01:43.846Z,3.10
2023-01-08T02:02:43.967Z,4.00
2023-01-08T02:03:44.353Z,3.00
2023-01-08T02:04:44.504Z,3.70
2023-01-08T02:05:44.794Z,3.90
2023-01-08T02:06:45.105Z,3.10
2023-01-08T02:07:45.367Z,2.80
2023-01-08T02:08:45.625Z,3.30
2023-01-08T02:09:45.860Z,2.90
2023-01-08T02:10:46.130Z,3.00
2023-01-08T02:11:46.463Z,3.20
2023-01-08T02:12:46.703Z,3.30
2023-01-08T02:13:47.021Z,3.80
2023-01-08T02:14:47.245Z,3.40
2023-01-08T02:15:47.522Z,3.50
2023-01-08T02:16:47.878Z,2.60
2023-01-08T02:17:48.161Z,2.70
2023-01-08T02:18:48.393Z,2.30
2023-01-08T02:19:48.710Z,3.40
2023-01-08T02:20:48.944Z,2.20
2023-01-08T02:21:49.279Z,1.90
2023-01-08T02:22:49.532Z,2.40
2023-01-08T02:23:49.812Z,3.20
2023-01-08T02:24:50.064Z,2.50
2023-01-08T02:25:50.324Z,2.70
2023-01-08T02:26:50.620Z,3.00
2023-01-08T02:27:50.872Z,3.20
2023-01-08T02:28:51.163Z,2.60
2023-01-08T02:29:51.411Z,3.20
2023-01-08T02:30:51.715Z,2.30
2023-01-08T02:31:52.013Z,2.00
2023-01-08T02:32:52.293Z,2.00
2023-01-08T02:33:52.590Z,2.30
2023-01-08T02:34:52.822Z,2.30
2023-01-08T02:35:53.110Z,1.60
2023-01-08T02:36:53.396Z,2.30
2023-01-08T02:37:53.682Z,2.20
2023-01-08T02:38:53.951Z,2.20
2023-01-08T02:39:54.184Z,1.70
2023-01-08T02:40:54.495Z,3.00
2023-01-08T02:41:54.792Z,2.60
2023-01-08T02:42:55.019Z,3.10
2023-01-08T02:43:55.281Z,2.80
2023-01-08T02:44:55.546Z,2.40
2023-01-08T02:45:55.823Z,2.40
2023-01-08T02:46:56.109Z,2.70
2023-01-08T02:47:56.428Z,2.80
2023-01-08T02:48:56.654Z,3.80
2023-01-08T02:49:56.943Z,3.10
2023-01-08T02:50:57.180Z,2.10
2023-01-08T02:51:57.505Z,2.50
2023-01-08T02:52:57.748Z,3.30
2023-01-08T02:53:58.072Z,3.00
2023-01-08T02:54:58.326Z,3.20
2023-01-08T02:55:58.567Z,2.70
2023-01-08T02:56:58.862Z,2.20
2023-01-08T02:57:59.098Z,1.90
2023-01-08T02:58:59.394Z,4.20
2023-01-08T02:59:59.653Z,2.10
2023-01-08T03:00:59.922Z,2.50
2023-01-08T03:02:00.335Z,2.90
2023-01-08T03:03:00.445Z,4.30
2023-01-08T03:04:00.744Z,2.10
2023-01-08T03:05:00.981Z,2.40
2023-01-08T03:06:01.268Z,2.50
2023-01-08T03:07:01.569Z,2.40
2023-01-08T03:08:01.824Z,4.40
2023-01-08T03:09:02.084Z,3.90
2023-01-08T03:10:02.337Z,3.30
2023-01-08T03:11:02.560Z,3.10
2023-01-08T03:12:02.871Z,4.00
2023-01-08T03:13:03.115Z,3.60
2023-01-08T03:14:03.419Z,3.90
2023-01-08T03:15:03.671Z,3.80
2023-01-08T03:16:03.914Z,2.60
2023-01-08T03:17:04.236Z,3.80
2023-01-08T03:18:04.409Z,3.40
2023-01-08T03:19:04.654Z,3.20
2023-01-08T03:20:04.882Z,4.50
2023-01-08T03:21:05.176Z,3.00
2023-01-08T03:22:05.420Z,2.80
2023-01-08T03:23:05.680Z,3.30
2023-01-08T03:24:05.909Z,2.50
2023-01-08T03:25:06.231Z,3.60
2023-01-08T03:26:06.488Z,3.80
2023-01-08T03:27:06.772Z,3.80
2023-01-08T03:28:07.035Z,4.90
2023-01-08T03:29:07.279Z,3.60
2023-01-08T03:30:07.575Z,4.20
2023-01-08T03:31:07.916Z,3.30
2023-01-08T03:32:08.167Z,3.40
2023-01-08T03:33:08.395Z,3.10
2023-01-08T03:34:08.660Z,3.50
2023-01-08T03:35:08.939Z,5.40
2023-01-08T03:36:09.251Z,4.40
2023-01-08T03:37:09.499Z,3.50
2023-01-08T03:38:09.777Z,3.20
2023-01-08T03:39:10.097Z,3.00
2023-01-08T03:40:10.331Z,4.40
2023-01-08T03:41:10.641Z,3.20
2023-01-08T03:42:10.904Z,3.20
2023-01-08T03:43:11.129Z,3.40
2023-01-08T03:44:11.399Z,2.90
2023-01-08T03:45:11.698Z,3.20
2023-01-08T03:46:12.001Z,2.30
2023-01-08T03:47:12.249Z,2.10
2023-01-08T03:48:12.571Z,1.40
2023-01-08T03:49:12.798Z,1.30
2023-01-08T03:50:13.081Z,3.70
2023-01-08T03:51:13.317Z,2.70
2023-01-08T03:52:13.636Z,2.80
2023-01-08T03:53:13.891Z,2.60
2023-01-08T03:54:14.123Z,2.60
2023-01-08T03:55:14.437Z,1.40
2023-01-08T03:56:14.676Z,1.40
2023-01-08T03:57:14.956Z,1.50
2023-01-08T03:58:15.229Z,1.20
2023-01-08T03:59:15.507Z,1.40
2023-01-08T04:00:15.777Z,1.80
2023-01-08T04:01:16.199Z,1.00
2023-01-08T04:02:16.461Z,1.40
2023-01-08T04:03:16.621Z,1.30
2023-01-08T04:04:16.940Z,1.60
2023-01-08T04:05:17.161Z,1.20
2023-01-08T04:06:17.467Z,1.30
2023-01-08T04:07:17.744Z,1.90
2023-01-08T04:08:18.005Z,1.60
2023-01-08T04:09:18.232Z,1.60
2023-01-08T04:10:18.537Z,1.40
2023-01-08T04:11:18.743Z,2.30
2023-01-08T04:12:19.075Z,1.70
2023-01-08T04:13:19.319Z,2.00
2023-01-08T04:14:19.592Z,1.50
2023-01-08T04:15:19.882Z,3.20
2023-01-08T04:16:20.215Z,1.80
2023-01-08T04:17:20.484Z,1.40
2023-01-08T04:18:20.713Z,1.80
2023-01-08T04:19:20.993Z,2.20
2023-01-08T04:20:21.306Z,1.90
2023-01-08T04:21:21.533Z,1.30
2023-01-08T04:22:21.832Z,1.20
2023-01-08T04:23:22.099Z,1.10
2023-01-08T04:24:22.350Z,1.40
2023-01-08T04:25:22.571Z,1.30
2023-01-08T04:26:22.858Z,1.40
2023-01-08T04:27:23.168Z,2.30
2023-01-08T04:28:23.419Z,1.30
2023-01-08T04:29:23.661Z,1.20
2023-01-08T04:30:23.959Z,1.20
2023-01-08T04:31:24.293Z,1.10
2023-01-08T04:32:24.543Z,1.70
2023-01-08T04:33:24.788Z,1.20
2023-01-08T04:34:25.051Z,3.00
2023-01-08T04:35:25.349Z,1.90
2023-01-08T04:36:25.607Z,1.30
2023-01-08T04:37:25.873Z,1.30
2023-01-08T04:38:26.130Z,1.10
2023-01-08T04:39:26.433Z,2.20
2023-01-08T04:40:26.678Z,1.40
2023-01-08T04:41:26.911Z,1.40
2023-01-08T04:42:27.220Z,1.20
2023-01-08T04:43:27.495Z,1.10
2023-01-08T04:44:27.745Z,1.60
2023-01-08T04:45:27.976Z,1.60
2023-01-08T04:46:28.355Z,1.30
2023-01-08T04:47:28.616Z,0.80
2023-01-08T04:48:28.859Z,1.60
2023-01-08T04:49:29.163Z,1.30
2023-01-08T04:50:29.407Z,1.30
2023-01-08T04:51:29.691Z,1.40
2023-01-08T04:52:30.028Z,1.80
2023-01-08T04:53:30.246Z,1.30
2023-01-08T04:54:30.552Z,1.70
2023-01-08T04:55:30.808Z,2.00
2023-01-08T04:56:31.056Z,1.10
2023-01-08T04:57:31.306Z,1.30
2023-01-08T04:58:31.553Z,1.10
2023-01-08T04:59:31.861Z,0.80
2023-01-08T05:00:32.123Z,1.10
2023-01-08T05:01:32.499Z,0.70
2023-01-08T05:02:32.756Z,1.00
2023-01-08T05:03:32.976Z,0.80
2023-01-08T05:04:33.220Z,0.70
2023-01-08T05:05:33.445Z,1.20
2023-01-08T05:06:33.753Z,0.70
2023-01-08T05:07:33.999Z,1.00
2023-01-08T05:08:34.273Z,1.10
2023-01-08T05:09:34.512Z,1.30
2023-01-08T05:10:34.799Z,0.60
2023-01-08T05:11:35.062Z,0.60
2023-01-08T05:12:35.374Z,1.70
2023-01-08T05:13:35.634Z,0.80
2023-01-08T05:14:35.927Z,0.70
2023-01-08T05:15:36.277Z,0.80
2023-01-08T05:16:36.524Z,0.70
2023-01-08T05:17:36.794Z,1.00
2023-01-08T05:18:37.061Z,1.20
2023-01-08T05:19:38.397Z,1.40
2023-01-08T05:20:37.604Z,0.90
2023-01-08T05:21:37.832Z,1.20
2023-01-08T05:22:38.134Z,1.50
2023-01-08T05:23:38.392Z,1.50
2023-01-08T05:24:38.633Z,1.90
2023-01-08T05:25:38.927Z,4.80
2023-01-08T05:26:39.224Z,1.70
2023-01-08T05:27:39.478Z,1.10
2023-01-08T05:28:39.750Z,0.70
2023-01-08T05:29:39.976Z,1.20
2023-01-08T05:30:40.241Z,1.20
2023-01-08T05:31:40.517Z,1.50
2023-01-08T05:32:40.793Z,1.10
2023-01-08T05:33:41.051Z,1.30
2023-01-08T05:34:41.303Z,1.40
2023-01-08T05:35:41.578Z,0.90
2023-01-08T05:36:41.825Z,1.60
2023-01-08T05:37:42.067Z,1.10
2023-01-08T05:38:42.365Z,1.20
2023-01-08T05:39:42.603Z,1.40
2023-01-08T05:40:42.882Z,0.90
2023-01-08T05:41:43.142Z,1.60
2023-01-08T05:42:43.470Z,1.50
2023-01-08T05:43:43.722Z,1.70
2023-01-08T05:44:43.978Z,1.90
2023-01-08T05:45:44.256Z,2.50
2023-01-08T05:46:44.579Z,2.80
2023-01-08T05:47:44.822Z,2.70
2023-01-08T05:48:45.118Z,2.60
2023-01-08T05:49:46.275Z,2.40
2023-01-08T05:50:45.711Z,2.50
2023-01-08T05:51:45.963Z,12.00
2023-01-08T05:52:46.258Z,14.60
2023-01-08T05:53:46.547Z,7.40
2023-01-08T05:54:46.805Z,28.10
2023-01-08T05:55:47.068Z,12.60
2023-01-08T05:56:47.371Z,7.70
2023-01-08T05:57:47.676Z,6.40
2023-01-08T05:58:47.911Z,4.30
2023-01-08T05:59:48.214Z,2.70
2023-01-08T06:00:48.445Z,1.40
2023-01-08T06:01:48.796Z,1.70
2023-01-08T06:02:49.141Z,1.50
2023-01-08T06:03:49.313Z,1.30
2023-01-08T06:04:49.555Z,1.10
2023-01-08T06:05:49.815Z,1.20
2023-01-08T06:06:50.039Z,1.10
2023-01-08T06:07:50.342Z,1.20
2023-01-08T06:08:50.579Z,0.90
2023-01-08T06:09:50.884Z,1.20
2023-01-08T06:10:51.122Z,0.90
2023-01-08T06:11:51.415Z,0.80
2023-01-08T06:12:51.720Z,0.90
2023-01-08T06:13:51.959Z,1.00
2023-01-08T06:14:52.233Z,0.80
2023-01-08T06:15:52.572Z,0.70
2023-01-08T06:16:52.851Z,0.80
2023-01-08T06:17:53.120Z,1.00
2023-01-08T06:18:53.365Z,0.90
2023-01-08T06:19:53.630Z,1.80
2023-01-08T06:20:53.926Z,0.80
2023-01-08T06:21:54.158Z,0.60
2023-01-08T06:22:54.446Z,1.20
2023-01-08T06:23:54.669Z,0.80
2023-01-08T06:24:54.976Z,0.80
2023-01-08T06:25:55.212Z,0.80
2023-01-08T06:26:55.505Z,0.70
2023-01-08T06:27:55.783Z,1.20
2023-01-08T06:28:56.050Z,0.90
2023-01-08T06:29:56.346Z,0.80
2023-01-08T06:30:56.624Z,0.70
2023-01-08T06:31:56.880Z,0.70
2023-01-08T06:32:57.159Z,1.30
2023-01-08T06:33:57.430Z,1.60
2023-01-08T06:34:57.711Z,1.20
2023-01-08T06:35:57.977Z,1.10
2023-01-08T06:36:58.263Z,1.10
2023-01-08T06:37:58.584Z,1.60
2023-01-08T06:38:58.838Z,0.90
2023-01-08T06:39:59.051Z,1.30
2023-01-08T06:40:59.324Z,1.00
2023-01-08T06:41:59.622Z,1.20
2023-01-08T06:42:59.931Z,1.30
2023-01-08T06:44:00.207Z,1.10
2023-01-08T06:45:00.460Z,1.90
2023-01-08T06:46:00.715Z,1.40
2023-01-08T06:47:01.009Z,1.60
2023-01-08T06:48:01.258Z,1.20
2023-01-08T06:49:01.494Z,1.60
2023-01-08T06:50:01.768Z,1.60
2023-01-08T06:51:02.064Z,1.70
2023-01-08T06:52:02.365Z,1.20
2023-01-08T06:53:02.613Z,0.80
2023-01-08T06:54:02.869Z,1.30
2023-01-08T06:55:03.113Z,0.80
2023-01-08T06:56:03.400Z,0.70
2023-01-08T06:57:03.671Z,1.50
2023-01-08T06:58:04.111Z,2.40
2023-01-08T06:59:04.269Z,1.10
2023-01-08T07:00:04.540Z,0.80
2023-01-08T07:01:04.793Z,1.20
2023-01-08T07:02:05.141Z,1.10
2023-01-08T07:03:05.519Z,0.80
2023-01-08T07:04:05.671Z,1.30
2023-01-08T07:05:05.936Z,0.80
2023-01-08T07:06:06.219Z,1.00
2023-01-08T07:07:06.465Z,1.00
2023-01-08T07:08:06.729Z,1.20
2023-01-08T07:09:07.030Z,0.90
2023-01-08T07:10:07.262Z,1.10
2023-01-08T07:11:07.533Z,1.00
2023-01-08T07:12:07.850Z,1.00
2023-01-08T07:13:08.092Z,2.00
2023-01-08T07:14:08.362Z,1.20
2023-01-08T07:15:08.573Z,1.20
2023-01-08T07:16:08.979Z,1.30
2023-01-08T07:17:09.147Z,1.10
2023-01-08T07:18:09.443Z,3.40
2023-01-08T07:19:09.717Z,1.40
2023-01-08T07:20:10.003Z,1.50
2023-01-08T07:21:10.297Z,1.10
2023-01-08T07:22:10.559Z,2.20
2023-01-08T07:23:10.842Z,1.60
2023-01-08T07:24:11.130Z,1.20
2023-01-08T07:25:11.414Z,1.70
2023-01-08T07:26:11.719Z,1.40
2023-01-08T07:27:11.973Z,1.40
2023-01-08T07:28:12.309Z,1.60
2023-01-08T07:29:12.543Z,1.70
2023-01-08T07:30:28.377Z,2.00
2023-01-08T07:31:14.139Z,13.20
2023-01-08T07:32:13.343Z,9.00
2023-01-08T07:33:13.659Z,7.10
2023-01-08T07:34:15.319Z,4.20
2023-01-08T07:35:14.226Z,3.80
2023-01-08T07:36:14.540Z,4.40
2023-01-08T07:37:14.821Z,2.00
2023-01-08T07:38:15.067Z,3.20
2023-01-08T07:39:15.364Z,1.50
2023-01-08T07:40:15.683Z,2.20
2023-01-08T07:41:15.937Z,1.90
2023-01-08T07:42:16.242Z,2.60
2023-01-08T07:43:16.519Z,2.90
2023-01-08T07:44:16.803Z,1.60
2023-01-08T07:45:17.058Z,1.50
2023-01-08T07:46:17.392Z,1.60
2023-01-08T07:47:17.665Z,1.90
2023-01-08T07:48:17.965Z,2.40
2023-01-08T07:49:18.247Z,1.70
2023-01-08T07:50:18.493Z,3.10
2023-01-08T07:51:18.802Z,3.10
2023-01-08T07:52:19.083Z,2.70
2023-01-08T07:53:19.383Z,2.00
2023-01-08T07:54:19.666Z,2.70
2023-01-08T07:55:19.951Z,1.80
2023-01-08T07:56:20.222Z,2.20
2023-01-08T07:57:20.507Z,1.60
2023-01-08T07:58:20.812Z,2.60
2023-01-08T07:59:21.084Z,2.90
2023-01-08T08:00:21.364Z,2.20
2023-01-08T08:01:21.774Z,2.10
2023-01-08T08:02:21.973Z,2.00
2023-01-08T08:03:22.270Z,1.90
2023-01-08T08:04:22.543Z,3.00
2023-01-08T08:05:22.795Z,3.20
2023-01-08T08:06:23.099Z,2.20
2023-01-08T08:07:23.385Z,1.80
2023-01-08T08:08:23.664Z,3.00
2023-01-08T08:09:23.942Z,2.60
2023-01-08T08:10:24.206Z,3.70
2023-01-08T08:11:24.464Z,3.10
2023-01-08T08:12:24.794Z,1.40
2023-01-08T08:13:25.038Z,2.40
2023-01-08T08:14:25.352Z,3.20
2023-01-08T08:15:25.655Z,3.80
2023-01-08T08:16:25.995Z,3.30
2023-01-08T08:17:26.237Z,3.00
2023-01-08T08:18:26.561Z,3.10
2023-01-08T08:19:26.833Z,2.70
2023-01-08T08:20:27.182Z,2.90
2023-01-08T08:21:27.411Z,1.80
2023-01-08T08:22:27.735Z,2.10
2023-01-08T08:23:28.034Z,3.30
2023-01-08T08:24:28.287Z,3.80
2023-01-08T08:25:28.621Z,3.20
2023-01-08T08:26:28.913Z,4.10
2023-01-08T08:27:29.164Z,4.70
2023-01-08T08:28:29.466Z,2.30
2023-01-08T08:29:29.792Z,1.40
2023-01-08T08:30:30.095Z,3.80
2023-01-08T08:31:30.462Z,2.50
2023-01-08T08:32:30.631Z,3.60
2023-01-08T08:33:30.974Z,2.70
2023-01-08T08:34:31.289Z,3.90
2023-01-08T08:35:31.580Z,2.40
2023-01-08T08:36:31.876Z,1.60
2023-01-08T08:37:32.126Z,2.60
2023-01-08T08:38:32.473Z,2.50
2023-01-08T08:39:32.742Z,4.10
2023-01-08T08:40:33.038Z,2.00
2023-01-08T08:41:33.316Z,3.80
2023-01-08T08:42:33.608Z,4.20
2023-01-08T08:43:33.893Z,3.70
2023-01-08T08:44:34.589Z,4.90
2023-01-08T08:45:34.411Z,4.40
2023-01-08T08:46:34.709Z,3.60
2023-01-08T08:47:35.025Z,4.90
2023-01-08T08:48:35.329Z,4.30
2023-01-08T08:49:35.651Z,3.90
2023-01-08T08:50:35.897Z,4.10
2023-01-08T08:51:36.248Z,4.80
2023-01-08T08:52:36.560Z,4.30
2023-01-08T08:53:36.816Z,4.70
2023-01-08T08:54:37.144Z,3.20
2023-01-08T08:55:38.290Z,3.20
2023-01-08T08:56:37.728Z,4.30
2023-01-08T08:57:38.077Z,3.20
2023-01-08T08:58:38.335Z,3.40
2023-01-08T08:59:38.619Z,2.50
2023-01-08T09:00:38.942Z,2.30
2023-01-08T09:01:39.324Z,3.80
2023-01-08T09:02:39.670Z,3.20
2023-01-08T09:03:39.913Z,3.90
2023-01-08T09:04:40.148Z,5.80
2023-01-08T09:05:40.458Z,1.70
2023-01-08T09:06:40.772Z,5.40
2023-01-08T09:07:41.114Z,3.50
2023-01-08T09:08:41.429Z,8.50
2023-01-08T09:09:41.708Z,5.80
2023-01-08T09:10:42.107Z,4.90
2023-01-08T09:11:42.406Z,2.70
2023-01-08T09:12:42.708Z,2.30
2023-01-08T09:13:43.015Z,3.30
2023-01-08T09:14:43.336Z,3.30
2023-01-08T09:15:43.642Z,2.50
2023-01-08T09:16:43.926Z,2.90
2023-01-08T09:17:44.284Z,2.90
2023-01-08T09:18:44.557Z,2.90
2023-01-08T09:19:44.897Z,3.10
2023-01-08T09:20:45.176Z,4.20
2023-01-08T09:21:45.502Z,1.90
2023-01-08T09:22:45.865Z,3.00
2023-01-08T09:23:46.143Z,2.80
2023-01-08T09:24:46.485Z,3.10
2023-01-08T09:25:46.784Z,4.00
2023-01-08T09:26:47.068Z,3.40
2023-01-08T09:27:47.439Z,2.30
2023-01-08T09:28:47.728Z,5.20
2023-01-08T09:29:48.049Z,1.70
2023-01-08T09:30:48.322Z,2.40
2023-01-08T09:31:48.705Z,2.60
2023-01-08T09:32:48.990Z,3.20
2023-01-08T09:33:49.277Z,3.00
2023-01-08T09:34:49.746Z,3.80
2023-01-08T09:35:49.912Z,2.20
2023-01-08T09:36:50.234Z,2.30
2023-01-08T09:37:50.570Z,2.70
2023-01-08T09:38:50.878Z,2.10
2023-01-08T09:40:01.420Z,2.70
2023-01-08T09:40:52.431Z,3.00
2023-01-08T09:41:51.656Z,3.50
2023-01-08T09:42:52.018Z,3.90
2023-01-08T09:43:52.288Z,2.20
2023-01-08T09:44:52.613Z,2.80
2023-01-08T09:45:52.965Z,3.30
2023-01-08T09:46:53.356Z,2.60
2023-01-08T09:47:53.530Z,3.00
2023-01-08T09:48:53.835Z,3.20
2023-01-08T09:49:54.186Z,3.90
2023-01-08T09:50:54.476Z,4.10
2023-01-08T09:51:54.765Z,2.60
2023-01-08T09:52:55.123Z,2.60
2023-01-08T09:53:55.456Z,4.80
2023-01-08T09:54:55.758Z,5.50
2023-01-08T09:56:09.249Z,4.40
2023-01-08T09:56:57.308Z,3.10
2023-01-08T09:57:56.560Z,4.50
2023-01-08T09:58:56.850Z,2.80
2023-01-08T09:59:57.181Z,4.90
2023-01-08T10:00:57.519Z,4.40
2023-01-08T10:01:57.941Z,4.10
2023-01-08T10:02:58.199Z,4.00
2023-01-08T10:03:58.367Z,3.10
2023-01-08T10:04:58.724Z,5.90
2023-01-08T10:05:59.015Z,5.90
2023-01-08T10:06:59.327Z,5.30
2023-01-08T10:07:59.666Z,3.10
2023-01-08T10:08:59.982Z,3.10
2023-01-08T10:10:00.259Z,4.40
2023-01-08T10:11:00.624Z,5.70
2023-01-08T10:12:00.902Z,4.80
2023-01-08T10:13:01.229Z,3.90
2023-01-08T10:14:01.535Z,4.70
2023-01-08T10:15:01.850Z,4.40
2023-01-08T10:16:02.238Z,3.90
2023-01-08T10:17:02.521Z,3.40
2023-01-08T10:18:02.825Z,4.10
2023-01-08T10:19:03.145Z,4.30
2023-01-08T10:20:03.439Z,2.10
2023-01-08T10:21:03.747Z,4.50
2023-01-08T10:22:04.044Z,3.70
2023-01-08T10:23:04.412Z,6.40
2023-01-08T10:24:04.699Z,5.00
2023-01-08T10:25:05.011Z,5.00
2023-01-08T10:26:05.308Z,6.20
2023-01-08T10:27:05.594Z,5.00
2023-01-08T10:28:05.940Z,4.70
2023-01-08T10:29:06.248Z,4.60
2023-01-08T10:30:06.544Z,9.10
2023-01-08T10:31:06.899Z,7.70
2023-01-08T10:32:07.062Z,6.10
2023-01-08T10:33:07.414Z,6.40
2023-01-08T10:34:07.688Z,4.70
2023-01-08T10:35:08.049Z,3.20
2023-01-08T10:36:08.342Z,2.90
2023-01-08T10:37:08.673Z,2.30
2023-01-08T10:38:09.017Z,2.90
2023-01-08T10:39:09.328Z,4.70
2023-01-08T10:40:09.620Z,2.00
2023-01-08T10:41:09.933Z,3.10
2023-01-08T10:42:10.237Z,2.60
2023-01-08T10:43:10.570Z,2.90
2023-01-08T10:44:10.844Z,3.80
2023-01-08T10:45:11.198Z,2.70
2023-01-08T10:46:11.461Z,2.90
2023-01-08T10:47:11.773Z,2.70
2023-01-08T10:48:12.083Z,3.20
2023-01-08T10:49:12.400Z,2.20
2023-01-08T10:50:12.762Z,2.80
2023-01-08T10:51:13.033Z,1.90
2023-01-08T10:52:13.380Z,2.00
2023-01-08T10:53:13.712Z,2.00
2023-01-08T10:54:14.007Z,2.20
2023-01-08T10:55:14.284Z,1.90
2023-01-08T10:56:14.623Z,2.90
2023-01-08T10:57:14.904Z,1.80
2023-01-08T10:58:15.290Z,4.20
2023-01-08T10:59:15.564Z,2.80
2023-01-08T11:00:15.888Z,2.70
2023-01-08T11:01:16.309Z,3.00
2023-01-08T11:02:16.524Z,2.20
2023-01-08T11:03:16.844Z,2.60
2023-01-08T11:04:17.180Z,2.90
2023-01-08T11:05:17.501Z,1.80
2023-01-08T11:06:17.776Z,2.90
2023-01-08T11:07:18.101Z,3.10
2023-01-08T11:08:18.468Z,1.90
2023-01-08T11:09:18.772Z,3.60
2023-01-08T11:10:19.084Z,2.40
2023-01-08T11:11:19.408Z,2.10
2023-01-08T11:12:19.676Z,2.40
2023-01-08T11:13:20.036Z,1.40
2023-01-08T11:14:20.342Z,2.80
2023-01-08T11:15:20.655Z,2.20
2023-01-08T11:16:20.977Z,5.00
2023-01-08T11:17:21.266Z,2.60
2023-01-08T11:18:21.614Z,3.20
2023-01-08T11:19:21.947Z,2.10
2023-01-08T11:20:22.406Z,2.90
2023-01-08T11:21:22.593Z,2.80
2023-01-08T11:22:22.884Z,3.90
2023-01-08T11:23:23.214Z,2.30
2023-01-08T11:24:23.547Z,2.80
2023-01-08T11:25:23.866Z,3.50
2023-01-08T11:26:24.205Z,2.60
2023-01-08T11:27:24.517Z,2.70
2023-01-08T11:28:24.854Z,3.10
2023-01-08T11:29:25.145Z,3.60
2023-01-08T11:30:25.424Z,3.90
2023-01-08T11:31:25.802Z,2.90
2023-01-08T11:32:26.081Z,2.40
2023-01-08T11:33:26.409Z,3.10
2023-01-08T11:34:26.762Z,3.20
2023-01-08T11:35:27.030Z,3.10
2023-01-08T11:36:27.395Z,4.30
2023-01-08T11:37:27.655Z,5.50
2023-01-08T11:38:27.989Z,3.10
2023-01-08T11:39:28.321Z,2.00
2023-01-08T11:40:28.639Z,4.50
2023-01-08T11:41:28.997Z,3.20
2023-01-08T11:42:30.155Z,3.40
2023-01-08T11:43:30.304Z,2.30
2023-01-08T11:44:29.889Z,1.70
2023-01-08T11:45:30.283Z,2.70
2023-01-08T11:46:30.475Z,1.30
2023-01-08T11:47:30.750Z,1.30
2023-01-08T11:48:31.105Z,2.10
2023-01-08T11:49:31.380Z,2.20
2023-01-08T11:50:31.728Z,2.00
2023-01-08T11:51:32.008Z,2.00
2023-01-08T11:52:32.349Z,2.30
2023-01-08T11:53:32.642Z,1.80
2023-01-08T11:54:32.988Z,2.00
2023-01-08T11:55:33.306Z,1.30
2023-01-08T11:56:33.610Z,1.40
2023-01-08T11:57:33.907Z,2.80
2023-01-08T11:58:34.189Z,1.90
2023-01-08T11:59:34.537Z,0.90
2023-01-08T12:00:34.875Z,1.30
2023-01-08T12:01:35.187Z,2.00
2023-01-08T12:02:35.517Z,1.10
2023-01-08T12:03:35.854Z,1.90
2023-01-08T12:04:36.049Z,2.00
2023-01-08T12:05:36.333Z,3.30
2023-01-08T12:06:37.159Z,1.10
2023-01-08T12:07:36.883Z,0.80
2023-01-08T12:08:37.159Z,1.50
2023-01-08T12:09:37.504Z,1.60
2023-01-08T12:10:37.855Z,0.90
2023-01-08T12:11:38.139Z,1.70
2023-01-08T12:12:38.449Z,2.20
2023-01-08T12:13:38.755Z,1.40
2023-01-08T12:14:39.022Z,0.90
2023-01-08T12:15:39.354Z,1.80
2023-01-08T12:16:39.702Z,1.00
2023-01-08T12:17:40.016Z,2.40
2023-01-08T12:18:40.306Z,0.50
2023-01-08T12:19:40.606Z,1.10
2023-01-08T12:20:40.964Z,1.00
2023-01-08T12:21:41.271Z,1.40
2023-01-08T12:22:41.570Z,1.00
2023-01-08T12:23:41.878Z,2.40
2023-01-08T12:24:42.169Z,1.60
2023-01-08T12:25:42.462Z,2.20
2023-01-08T12:26:42.803Z,0.80
2023-01-08T12:27:56.413Z,2.40
2023-01-08T12:28:44.350Z,1.60
2023-01-08T12:29:43.701Z,1.30
2023-01-08T12:30:44.023Z,2.20
2023-01-08T12:31:48.733Z,1.70
2023-01-08T12:32:45.636Z,1.50
2023-01-08T12:33:44.992Z,2.40
2023-01-08T12:34:45.288Z,1.20
2023-01-08T12:35:45.588Z,2.10
2023-01-08T12:36:45.905Z,1.20
2023-01-08T12:37:46.198Z,2.10
2023-01-08T12:38:46.474Z,0.90
2023-01-08T12:39:46.782Z,0.70
2023-01-08T12:40:47.129Z,1.00
2023-01-08T12:41:47.475Z,1.10
2023-01-08T12:43:00.111Z,0.70
2023-01-08T12:43:49.022Z,2.00
2023-01-08T12:44:48.396Z,3.40
2023-01-08T12:45:48.718Z,2.10
2023-01-08T12:46:49.005Z,1.50
2023-01-08T12:47:49.319Z,0.70
2023-01-08T12:48:51.678Z,1.50
2023-01-08T12:49:49.864Z,0.80
2023-01-08T12:50:50.203Z,0.80
2023-01-08T12:51:50.512Z,1.20
2023-01-08T12:52:50.867Z,1.70
2023-01-08T12:53:51.167Z,1.10
2023-01-08T12:54:51.438Z,1.30
2023-01-08T12:55:51.777Z,0.90
2023-01-08T12:56:52.090Z,2.10
2023-01-08T12:57:52.379Z,1.20
2023-01-08T12:58:52.734Z,0.80
2023-01-08T12:59:53.036Z,1.40
2023-01-08T13:00:53.372Z,2.10
2023-01-08T13:01:53.785Z,0.50
2023-01-08T13:02:53.987Z,1.60
2023-01-08T13:03:54.283Z,0.60
2023-01-08T13:04:54.612Z,1.80
2023-01-08T13:05:54.863Z,1.00
2023-01-08T13:06:55.185Z,0.80
2023-01-08T13:07:55.465Z,1.10
2023-01-08T13:08:55.849Z,1.80
2023-01-08T13:09:56.151Z,1.70
2023-01-08T13:10:56.441Z,1.90
2023-01-08T13:11:56.776Z,1.30
2023-01-08T13:12:57.053Z,1.50
2023-01-08T13:13:57.397Z,1.30
2023-01-08T13:14:57.680Z,0.70
2023-01-08T13:15:57.934Z,1.50
2023-01-08T13:16:58.281Z,1.50
2023-01-08T13:17:58.544Z,1.00
2023-01-08T13:18:58.885Z,0.70
2023-01-08T13:19:59.186Z,1.10
2023-01-08T13:20:59.549Z,2.30
2023-01-08T13:21:59.849Z,1.50